Forestgrove, Montana
Current Conditions -  °F | °C
As of 3:54 PM on Monday 22 Dec 2014 (Local Time) from KLWT Reporting Station
Overcast Overcast  
Wind Chill: 27°   Ceiling: 7500
Heat Index: 34°   Visibility: 10mi
Dew Point: 22°   Wind: 9mph
Humidity: 61%   Direction: 290°WNW
Pressure: 29.94"   Gusts: NA
Location:  47.2485°N, 109.2631°W
Report Text: KLWT 222254Z AUTO 29008KT 10SM SCT038 OVC075 01/M06 A2994 RMK AO2 SLP159 T00111056
Loading
Personal Weather Stations






























Interactive Weather Map New forecast layout! Learn more

10-Day Weather Forecast

Advertisements
Track Severe Weather on mobile